sensor_id;sensor_type;location;lat;lon;timestamp;temperature;humidity
20171;DHT22;10245;51.344;6.620;2022-09-09T00:00:15;18.40;99.90
20171;DHT22;10245;51.344;6.620;2022-09-09T00:02:42;18.30;99.90
20171;DHT22;10245;51.344;6.620;2022-09-09T00:05:17;18.30;99.90
20171;DHT22;10245;51.344;6.620;2022-09-09T00:07:47;18.30;99.90
20171;DHT22;10245;51.344;6.620;2022-09-09T00:10:21;18.30;99.90
20171;DHT22;10245;51.344;6.620;2022-09-09T00:12:55;18.30;99.90
20171;DHT22;10245;51.344;6.620;2022-09-09T00:15:26;18.30;99.90
20171;DHT22;10245;51.344;6.620;2022-09-09T00:17:58;18.30;99.90
20171;DHT22;10245;51.344;6.620;2022-09-09T00:20:32;18.30;99.90
20171;DHT22;10245;51.344;6.620;2022-09-09T00:23:05;18.40;99.90
20171;DHT22;10245;51.344;6.620;2022-09-09T00:25:39;18.30;99.90
20171;DHT22;10245;51.344;6.620;2022-09-09T00:28:11;18.40;99.90
20171;DHT22;10245;51.344;6.620;2022-09-09T00:30:38;18.20;99.90
20171;DHT22;10245;51.344;6.620;2022-09-09T00:33:10;18.30;99.90
20171;DHT22;10245;51.344;6.620;2022-09-09T00:35:39;18.10;99.90
20171;DHT22;10245;51.344;6.620;2022-09-09T00:38:10;18.20;99.90
20171;DHT22;10245;51.344;6.620;2022-09-09T00:40:41;18.40;99.90
20171;DHT22;10245;51.344;6.620;2022-09-09T00:43:24;18.20;99.90
20171;DHT22;10245;51.344;6.620;2022-09-09T00:46:13;18.20;99.90
20171;DHT22;10245;51.344;6.620;2022-09-09T00:48:52;18.30;99.90
20171;DHT22;10245;51.344;6.620;2022-09-09T00:51:28;18.30;99.90
20171;DHT22;10245;51.344;6.620;2022-09-09T00:54:07;18.20;99.90
20171;DHT22;10245;51.344;6.620;2022-09-09T00:56:42;18.30;99.90
20171;DHT22;10245;51.344;6.620;2022-09-09T00:59:20;18.10;99.90
20171;DHT22;10245;51.344;6.620;2022-09-09T01:01:51;18.10;99.90
20171;DHT22;10245;51.344;6.620;2022-09-09T01:04:19;18.10;99.90
20171;DHT22;10245;51.344;6.620;2022-09-09T01:06:49;18.10;99.90
20171;DHT22;10245;51.344;6.620;2022-09-09T01:09:18;18.20;99.90
20171;DHT22;10245;51.344;6.620;2022-09-09T01:11:55;18.10;99.90
20171;DHT22;10245;51.344;6.620;2022-09-09T01:14:39;18.20;99.90
20171;DHT22;10245;51.344;6.620;2022-09-09T01:17:15;18.10;99.90
20171;DHT22;10245;51.344;6.620;2022-09-09T01:19:57;18.10;99.90
20171;DHT22;10245;51.344;6.620;2022-09-09T01:22:43;18.10;99.90
20171;DHT22;10245;51.344;6.620;2022-09-09T01:25:26;18.00;99.90
20171;DHT22;10245;51.344;6.620;2022-09-09T01:28:04;17.90;99.90
20171;DHT22;10245;51.344;6.620;2022-09-09T01:30:33;18.00;99.90
20171;DHT22;10245;51.344;6.620;2022-09-09T01:33:03;18.00;99.90
20171;DHT22;10245;51.344;6.620;2022-09-09T01:35:37;17.80;99.90
20171;DHT22;10245;51.344;6.620;2022-09-09T01:38:05;17.90;99.90
20171;DHT22;10245;51.344;6.620;2022-09-09T01:40:29;17.90;99.90
20171;DHT22;10245;51.344;6.620;2022-09-09T01:42:52;18.00;99.90
20171;DHT22;10245;51.344;6.620;2022-09-09T01:45:17;18.10;99.90
20171;DHT22;10245;51.344;6.620;2022-09-09T01:47:41;18.10;99.90
20171;DHT22;10245;51.344;6.620;2022-09-09T01:50:15;18.10;99.90
20171;DHT22;10245;51.344;6.620;2022-09-09T01:52:39;18.00;99.90
20171;DHT22;10245;51.344;6.620;2022-09-09T01:55:07;18.10;99.90
20171;DHT22;10245;51.344;6.620;2022-09-09T01:57:41;18.00;99.90
20171;DHT22;10245;51.344;6.620;2022-09-09T02:00:11;18.00;99.90
20171;DHT22;10245;51.344;6.620;2022-09-09T02:02:44;18.10;99.90
20171;DHT22;10245;51.344;6.620;2022-09-09T02:05:25;18.10;99.90
20171;DHT22;10245;51.344;6.620;2022-09-09T02:07:59;17.90;99.90
20171;DHT22;10245;51.344;6.620;2022-09-09T02:10:41;18.00;99.90
20171;DHT22;10245;51.344;6.620;2022-09-09T02:13:14;18.20;99.90
20171;DHT22;10245;51.344;6.620;2022-09-09T02:15:47;18.10;99.90
20171;DHT22;10245;51.344;6.620;2022-09-09T02:18:22;18.10;99.90
20171;DHT22;10245;51.344;6.620;2022-09-09T02:20:47;18.00;99.90
20171;DHT22;10245;51.344;6.620;2022-09-09T02:23:11;18.10;99.90
20171;DHT22;10245;51.344;6.620;2022-09-09T02:25:37;18.10;99.90
20171;DHT22;10245;51.344;6.620;2022-09-09T02:28:14;18.20;99.90
20171;DHT22;10245;51.344;6.620;2022-09-09T02:30:39;18.20;99.90
20171;DHT22;10245;51.344;6.620;2022-09-09T02:33:06;18.00;99.90
20171;DHT22;10245;51.344;6.620;2022-09-09T02:35:40;18.10;99.90
20171;DHT22;10245;51.344;6.620;2022-09-09T02:38:09;18.10;99.90
20171;DHT22;10245;51.344;6.620;2022-09-09T02:40:38;18.10;99.90
20171;DHT22;10245;51.344;6.620;2022-09-09T02:43:01;18.10;99.90
20171;DHT22;10245;51.344;6.620;2022-09-09T02:45:31;18.00;99.90
20171;DHT22;10245;51.344;6.620;2022-09-09T02:48:05;17.90;99.90
20171;DHT22;10245;51.344;6.620;2022-09-09T02:50:35;17.90;99.90
20171;DHT22;10245;51.344;6.620;2022-09-09T02:53:10;18.00;99.90
20171;DHT22;10245;51.344;6.620;2022-09-09T02:55:45;18.10;99.90
20171;DHT22;10245;51.344;6.620;2022-09-09T02:58:14;18.10;99.90
20171;DHT22;10245;51.344;6.620;2022-09-09T03:00:49;18.00;99.90
20171;DHT22;10245;51.344;6.620;2022-09-09T03:03:15;17.90;99.90
20171;DHT22;10245;51.344;6.620;2022-09-09T03:05:41;18.00;99.90
20171;DHT22;10245;51.344;6.620;2022-09-09T03:08:07;17.90;99.90
20171;DHT22;10245;51.344;6.620;2022-09-09T03:10:31;18.10;99.90
20171;DHT22;10245;51.344;6.620;2022-09-09T03:12:55;18.20;99.90
20171;DHT22;10245;51.344;6.620;2022-09-09T03:15:20;18.10;99.90
20171;DHT22;10245;51.344;6.620;2022-09-09T03:17:44;18.10;99.90
20171;DHT22;10245;51.344;6.620;2022-09-09T03:20:08;18.10;99.90
20171;DHT22;10245;51.344;6.620;2022-09-09T03:22:32;18.10;99.90
20171;DHT22;10245;51.344;6.620;2022-09-09T03:24:57;18.00;99.90
20171;DHT22;10245;51.344;6.620;2022-09-09T03:27:22;18.10;99.90
20171;DHT22;10245;51.344;6.620;2022-09-09T03:29:46;18.10;99.90
20171;DHT22;10245;51.344;6.620;2022-09-09T03:32:17;18.10;99.90
20171;DHT22;10245;51.344;6.620;2022-09-09T03:34:41;18.00;99.90
20171;DHT22;10245;51.344;6.620;2022-09-09T03:37:06;18.00;99.90
20171;DHT22;10245;51.344;6.620;2022-09-09T03:39:30;18.00;99.90
20171;DHT22;10245;51.344;6.620;2022-09-09T03:41:55;18.00;99.90
20171;DHT22;10245;51.344;6.620;2022-09-09T03:44:18;18.00;99.90
20171;DHT22;10245;51.344;6.620;2022-09-09T03:46:42;18.00;99.90
20171;DHT22;10245;51.344;6.620;2022-09-09T03:49:06;18.00;99.90
20171;DHT22;10245;51.344;6.620;2022-09-09T03:51:29;17.80;99.90
20171;DHT22;10245;51.344;6.620;2022-09-09T03:53:53;18.00;99.90
20171;DHT22;10245;51.344;6.620;2022-09-09T03:56:17;17.80;99.90
20171;DHT22;10245;51.344;6.620;2022-09-09T03:58:41;18.00;99.90
20171;DHT22;10245;51.344;6.620;2022-09-09T04:01:08;17.80;99.90
20171;DHT22;10245;51.344;6.620;2022-09-09T04:03:36;17.80;99.90
20171;DHT22;10245;51.344;6.620;2022-09-09T04:06:01;17.80;99.90
20171;DHT22;10245;51.344;6.620;2022-09-09T04:08:29;17.90;99.90
20171;DHT22;10245;51.344;6.620;2022-09-09T04:10:54;17.70;99.90
20171;DHT22;10245;51.344;6.620;2022-09-09T04:13:21;17.80;99.90
20171;DHT22;10245;51.344;6.620;2022-09-09T04:15:50;17.90;99.90
20171;DHT22;10245;51.344;6.620;2022-09-09T04:18:14;18.00;99.90
20171;DHT22;10245;51.344;6.620;2022-09-09T04:20:41;18.00;99.90
20171;DHT22;10245;51.344;6.620;2022-09-09T04:23:05;17.80;99.90
20171;DHT22;10245;51.344;6.620;2022-09-09T04:25:29;17.90;99.90
20171;DHT22;10245;51.344;6.620;2022-09-09T04:27:53;17.90;99.90
20171;DHT22;10245;51.344;6.620;2022-09-09T04:30:17;17.90;99.90
20171;DHT22;10245;51.344;6.620;2022-09-09T04:32:42;17.90;99.90
20171;DHT22;10245;51.344;6.620;2022-09-09T04:35:05;18.00;99.90
20171;DHT22;10245;51.344;6.620;2022-09-09T04:37:29;17.90;99.90
20171;DHT22;10245;51.344;6.620;2022-09-09T04:39:53;18.10;99.90
20171;DHT22;10245;51.344;6.620;2022-09-09T04:42:17;18.10;99.90
20171;DHT22;10245;51.344;6.620;2022-09-09T04:44:41;18.10;99.90
20171;DHT22;10245;51.344;6.620;2022-09-09T04:47:05;18.10;99.90
20171;DHT22;10245;51.344;6.620;2022-09-09T04:49:30;18.10;99.90
20171;DHT22;10245;51.344;6.620;2022-09-09T04:51:53;18.10;99.90
20171;DHT22;10245;51.344;6.620;2022-09-09T04:54:17;18.10;99.90
20171;DHT22;10245;51.344;6.620;2022-09-09T04:56:41;18.10;99.90
20171;DHT22;10245;51.344;6.620;2022-09-09T04:59:05;18.00;99.90
20171;DHT22;10245;51.344;6.620;2022-09-09T05:01:38;18.00;99.90
20171;DHT22;10245;51.344;6.620;2022-09-09T05:04:04;18.00;99.90
20171;DHT22;10245;51.344;6.620;2022-09-09T05:06:30;18.00;99.90
20171;DHT22;10245;51.344;6.620;2022-09-09T05:08:55;18.10;99.90
20171;DHT22;10245;51.344;6.620;2022-09-09T05:11:23;18.00;99.90
20171;DHT22;10245;51.344;6.620;2022-09-09T05:13:53;18.00;99.90
20171;DHT22;10245;51.344;6.620;2022-09-09T05:16:18;18.00;99.90
20171;DHT22;10245;51.344;6.620;2022-09-09T05:18:43;18.00;99.90
20171;DHT22;10245;51.344;6.620;2022-09-09T05:21:07;18.00;99.90
20171;DHT22;10245;51.344;6.620;2022-09-09T05:23:35;18.00;99.90
20171;DHT22;10245;51.344;6.620;2022-09-09T05:26:00;18.10;99.90
20171;DHT22;10245;51.344;6.620;2022-09-09T05:28:24;18.10;99.90
20171;DHT22;10245;51.344;6.620;2022-09-09T05:30:55;18.10;99.90
20171;DHT22;10245;51.344;6.620;2022-09-09T05:33:23;18.10;99.90
20171;DHT22;10245;51.344;6.620;2022-09-09T05:35:47;18.10;99.90
20171;DHT22;10245;51.344;6.620;2022-09-09T05:38:11;18.10;99.90
20171;DHT22;10245;51.344;6.620;2022-09-09T05:40:38;18.10;99.90
20171;DHT22;10245;51.344;6.620;2022-09-09T05:43:07;18.20;99.90
20171;DHT22;10245;51.344;6.620;2022-09-09T05:45:30;18.10;99.90
20171;DHT22;10245;51.344;6.620;2022-09-09T05:47:54;18.00;99.90
20171;DHT22;10245;51.344;6.620;2022-09-09T05:50:19;18.10;99.90
20171;DHT22;10245;51.344;6.620;2022-09-09T05:52:44;18.20;99.90
20171;DHT22;10245;51.344;6.620;2022-09-09T05:55:09;18.10;99.90
20171;DHT22;10245;51.344;6.620;2022-09-09T05:57:34;18.10;99.90
20171;DHT22;10245;51.344;6.620;2022-09-09T05:59:57;18.20;99.90
20171;DHT22;10245;51.344;6.620;2022-09-09T06:02:22;18.20;99.90
20171;DHT22;10245;51.344;6.620;2022-09-09T06:04:45;18.20;99.90
20171;DHT22;10245;51.344;6.620;2022-09-09T06:07:09;18.00;99.90
20171;DHT22;10245;51.344;6.620;2022-09-09T06:09:32;18.00;99.90
20171;DHT22;10245;51.344;6.620;2022-09-09T06:11:56;18.20;99.90
20171;DHT22;10245;51.344;6.620;2022-09-09T06:14:21;18.10;99.90
20171;DHT22;10245;51.344;6.620;2022-09-09T06:16:46;18.10;99.90
20171;DHT22;10245;51.344;6.620;2022-09-09T06:19:17;18.20;99.90
20171;DHT22;10245;51.344;6.620;2022-09-09T06:21:42;18.30;99.90
20171;DHT22;10245;51.344;6.620;2022-09-09T06:24:07;18.20;99.90
20171;DHT22;10245;51.344;6.620;2022-09-09T06:26:32;18.40;99.90
20171;DHT22;10245;51.344;6.620;2022-09-09T06:28:57;18.30;99.90
20171;DHT22;10245;51.344;6.620;2022-09-09T06:31:25;18.30;99.90
20171;DHT22;10245;51.344;6.620;2022-09-09T06:33:57;18.30;99.90
20171;DHT22;10245;51.344;6.620;2022-09-09T06:36:22;18.40;99.90
20171;DHT22;10245;51.344;6.620;2022-09-09T06:38:47;18.40;99.90
20171;DHT22;10245;51.344;6.620;2022-09-09T06:41:12;18.20;99.90
20171;DHT22;10245;51.344;6.620;2022-09-09T06:43:38;18.30;99.90
20171;DHT22;10245;51.344;6.620;2022-09-09T06:46:03;18.20;99.90
20171;DHT22;10245;51.344;6.620;2022-09-09T06:48:31;18.30;99.90
20171;DHT22;10245;51.344;6.620;2022-09-09T06:51:03;18.30;99.90
20171;DHT22;10245;51.344;6.620;2022-09-09T06:53:28;18.20;99.90
20171;DHT22;10245;51.344;6.620;2022-09-09T06:55:52;18.40;99.90
20171;DHT22;10245;51.344;6.620;2022-09-09T06:58:17;18.50;99.90
20171;DHT22;10245;51.344;6.620;2022-09-09T07:00:40;18.60;99.90
20171;DHT22;10245;51.344;6.620;2022-09-09T07:03:13;18.50;99.90
20171;DHT22;10245;51.344;6.620;2022-09-09T07:05:37;18.70;99.90
20171;DHT22;10245;51.344;6.620;2022-09-09T07:08:03;19.00;99.90
20171;DHT22;10245;51.344;6.620;2022-09-09T07:10:27;18.80;99.90
20171;DHT22;10245;51.344;6.620;2022-09-09T07:12:51;18.90;99.90
20171;DHT22;10245;51.344;6.620;2022-09-09T07:15:17;18.80;99.90
20171;DHT22;10245;51.344;6.620;2022-09-09T07:17:41;19.00;99.90
20171;DHT22;10245;51.344;6.620;2022-09-09T07:20:05;18.90;99.90
20171;DHT22;10245;51.344;6.620;2022-09-09T07:22:30;19.10;99.90
20171;DHT22;10245;51.344;6.620;2022-09-09T07:24:54;19.30;99.90
20171;DHT22;10245;51.344;6.620;2022-09-09T07:27:17;19.20;99.90
20171;DHT22;10245;51.344;6.620;2022-09-09T07:29:42;19.10;99.90
20171;DHT22;10245;51.344;6.620;2022-09-09T07:32:07;19.10;99.00
20171;DHT22;10245;51.344;6.620;2022-09-09T07:34:32;19.20;98.80
20171;DHT22;10245;51.344;6.620;2022-09-09T07:36:56;19.00;99.00
20171;DHT22;10245;51.344;6.620;2022-09-09T07:39:21;19.10;98.70
20171;DHT22;10245;51.344;6.620;2022-09-09T07:41:48;19.00;98.80
20171;DHT22;10245;51.344;6.620;2022-09-09T07:44:18;18.80;99.90
20171;DHT22;10245;51.344;6.620;2022-09-09T07:46:46;18.70;98.90
20171;DHT22;10245;51.344;6.620;2022-09-09T07:49:14;19.00;98.00
20171;DHT22;10245;51.344;6.620;2022-09-09T07:51:39;18.90;97.50
20171;DHT22;10245;51.344;6.620;2022-09-09T07:54:07;19.00;99.90
20171;DHT22;10245;51.344;6.620;2022-09-09T07:56:36;18.90;96.90
20171;DHT22;10245;51.344;6.620;2022-09-09T07:59:01;19.00;95.80
20171;DHT22;10245;51.344;6.620;2022-09-09T08:01:29;19.00;96.30
20171;DHT22;10245;51.344;6.620;2022-09-09T08:04:03;19.10;95.80
20171;DHT22;10245;51.344;6.620;2022-09-09T08:06:30;19.40;95.50
20171;DHT22;10245;51.344;6.620;2022-09-09T08:08:55;19.40;94.80
20171;DHT22;10245;51.344;6.620;2022-09-09T08:11:19;19.50;95.90
20171;DHT22;10245;51.344;6.620;2022-09-09T08:13:46;19.50;95.80
20171;DHT22;10245;51.344;6.620;2022-09-09T08:16:17;19.50;93.00
20171;DHT22;10245;51.344;6.620;2022-09-09T08:18:43;19.70;93.10
20171;DHT22;10245;51.344;6.620;2022-09-09T08:21:09;19.80;94.60
20171;DHT22;10245;51.344;6.620;2022-09-09T08:23:34;19.90;91.70
20171;DHT22;10245;51.344;6.620;2022-09-09T08:26:03;19.80;93.30
20171;DHT22;10245;51.344;6.620;2022-09-09T08:28:28;19.70;93.00
20171;DHT22;10245;51.344;6.620;2022-09-09T08:30:54;19.90;92.90
20171;DHT22;10245;51.344;6.620;2022-09-09T08:33:17;20.20;93.70
20171;DHT22;10245;51.344;6.620;2022-09-09T08:35:50;20.00;91.60
20171;DHT22;10245;51.344;6.620;2022-09-09T08:38:14;20.20;92.60
20171;DHT22;10245;51.344;6.620;2022-09-09T08:40:42;20.50;91.10
20171;DHT22;10245;51.344;6.620;2022-09-09T08:43:08;20.40;90.80
20171;DHT22;10245;51.344;6.620;2022-09-09T08:45:35;20.20;89.60
20171;DHT22;10245;51.344;6.620;2022-09-09T08:48:12;20.00;90.90
20171;DHT22;10245;51.344;6.620;2022-09-09T08:50:43;19.90;90.00
20171;DHT22;10245;51.344;6.620;2022-09-09T08:53:17;19.70;91.30
20171;DHT22;10245;51.344;6.620;2022-09-09T08:55:47;19.70;91.90
20171;DHT22;10245;51.344;6.620;2022-09-09T08:58:17;19.70;92.30
20171;DHT22;10245;51.344;6.620;2022-09-09T09:01:09;19.80;91.00
20171;DHT22;10245;51.344;6.620;2022-09-09T09:03:52;19.90;89.60
20171;DHT22;10245;51.344;6.620;2022-09-09T09:06:31;20.10;91.10
20171;DHT22;10245;51.344;6.620;2022-09-09T09:09:10;19.90;90.80
20171;DHT22;10245;51.344;6.620;2022-09-09T09:11:38;20.10;89.90
20171;DHT22;10245;51.344;6.620;2022-09-09T09:14:09;19.90;89.70
20171;DHT22;10245;51.344;6.620;2022-09-09T09:16:40;19.90;89.80
20171;DHT22;10245;51.344;6.620;2022-09-09T09:19:14;19.90;89.50
20171;DHT22;10245;51.344;6.620;2022-09-09T09:21:42;19.80;89.30
20171;DHT22;10245;51.344;6.620;2022-09-09T09:24:15;20.00;87.70
20171;DHT22;10245;51.344;6.620;2022-09-09T09:26:43;20.00;88.00
20171;DHT22;10245;51.344;6.620;2022-09-09T09:29:11;19.90;87.80
20171;DHT22;10245;51.344;6.620;2022-09-09T09:31:36;20.10;86.80
20171;DHT22;10245;51.344;6.620;2022-09-09T09:34:00;20.00;87.50
20171;DHT22;10245;51.344;6.620;2022-09-09T09:36:34;20.10;87.40
20171;DHT22;10245;51.344;6.620;2022-09-09T09:39:05;20.20;86.70
20171;DHT22;10245;51.344;6.620;2022-09-09T09:41:52;20.30;86.40
20171;DHT22;10245;51.344;6.620;2022-09-09T09:44:23;20.50;88.00
20171;DHT22;10245;51.344;6.620;2022-09-09T09:46:49;20.50;86.20
20171;DHT22;10245;51.344;6.620;2022-09-09T09:49:13;21.00;83.70
20171;DHT22;10245;51.344;6.620;2022-09-09T09:51:39;21.00;81.60
20171;DHT22;10245;51.344;6.620;2022-09-09T09:54:09;21.20;82.00
20171;DHT22;10245;51.344;6.620;2022-09-09T09:56:43;21.30;82.10
20171;DHT22;10245;51.344;6.620;2022-09-09T09:59:20;21.40;82.00
20171;DHT22;10245;51.344;6.620;2022-09-09T10:02:19;21.50;80.90
20171;DHT22;10245;51.344;6.620;2022-09-09T10:05:01;21.60;81.60
20171;DHT22;10245;51.344;6.620;2022-09-09T10:07:29;21.50;81.60
20171;DHT22;10245;51.344;6.620;2022-09-09T10:09:56;21.30;81.90
20171;DHT22;10245;51.344;6.620;2022-09-09T10:12:29;21.50;81.40
20171;DHT22;10245;51.344;6.620;2022-09-09T10:15:00;21.30;80.30
20171;DHT22;10245;51.344;6.620;2022-09-09T10:17:35;21.40;81.00
20171;DHT22;10245;51.344;6.620;2022-09-09T10:20:16;21.20;80.80
20171;DHT22;10245;51.344;6.620;2022-09-09T10:22:50;21.00;80.60
20171;DHT22;10245;51.344;6.620;2022-09-09T10:25:27;21.10;80.60
20171;DHT22;10245;51.344;6.620;2022-09-09T10:28:30;21.00;82.10
20171;DHT22;10245;51.344;6.620;2022-09-09T10:31:11;20.90;81.80
20171;DHT22;10245;51.344;6.620;2022-09-09T10:33:48;20.80;83.30
20171;DHT22;10245;51.344;6.620;2022-09-09T10:36:17;20.70;83.90
20171;DHT22;10245;51.344;6.620;2022-09-09T10:38:46;20.60;83.60
20171;DHT22;10245;51.344;6.620;2022-09-09T10:41:15;20.70;84.00
20171;DHT22;10245;51.344;6.620;2022-09-09T10:44:03;20.90;83.90
20171;DHT22;10245;51.344;6.620;2022-09-09T10:46:50;21.00;82.90
20171;DHT22;10245;51.344;6.620;2022-09-09T10:49:24;21.20;82.10
20171;DHT22;10245;51.344;6.620;2022-09-09T10:52:00;21.40;81.00
20171;DHT22;10245;51.344;6.620;2022-09-09T10:54:38;21.50;81.50
20171;DHT22;10245;51.344;6.620;2022-09-09T10:57:12;21.30;80.10
20171;DHT22;10245;51.344;6.620;2022-09-09T10:59:39;21.30;80.60
20171;DHT22;10245;51.344;6.620;2022-09-09T11:02:12;21.00;80.50
20171;DHT22;10245;51.344;6.620;2022-09-09T11:04:41;21.10;81.60
20171;DHT22;10245;51.344;6.620;2022-09-09T11:07:08;20.90;80.00
20171;DHT22;10245;51.344;6.620;2022-09-09T11:09:39;21.00;81.90
20171;DHT22;10245;51.344;6.620;2022-09-09T11:12:06;21.30;80.70
20171;DHT22;10245;51.344;6.620;2022-09-09T11:14:41;21.50;81.90
20171;DHT22;10245;51.344;6.620;2022-09-09T11:17:10;21.20;79.50
20171;DHT22;10245;51.344;6.620;2022-09-09T11:19:37;21.20;80.60
20171;DHT22;10245;51.344;6.620;2022-09-09T11:22:04;21.20;80.20
20171;DHT22;10245;51.344;6.620;2022-09-09T11:24:35;21.30;80.70
20171;DHT22;10245;51.344;6.620;2022-09-09T11:27:06;21.20;80.30
20171;DHT22;10245;51.344;6.620;2022-09-09T11:29:58;21.20;79.90
20171;DHT22;10245;51.344;6.620;2022-09-09T11:35:33;21.30;80.20
20171;DHT22;10245;51.344;6.620;2022-09-09T11:38:14;21.60;79.90
20171;DHT22;10245;51.344;6.620;2022-09-09T11:40:41;21.40;80.60
20171;DHT22;10245;51.344;6.620;2022-09-09T11:43:09;21.80;80.50
20171;DHT22;10245;51.344;6.620;2022-09-09T11:45:36;21.80;78.40
20171;DHT22;10245;51.344;6.620;2022-09-09T11:48:00;22.00;78.10
20171;DHT22;10245;51.344;6.620;2022-09-09T11:50:31;21.70;77.30
20171;DHT22;10245;51.344;6.620;2022-09-09T11:53:20;21.40;78.40
20171;DHT22;10245;51.344;6.620;2022-09-09T11:55:47;21.30;79.20
20171;DHT22;10245;51.344;6.620;2022-09-09T11:58:17;21.20;79.40
20171;DHT22;10245;51.344;6.620;2022-09-09T12:00:43;21.30;80.00
20171;DHT22;10245;51.344;6.620;2022-09-09T12:03:33;21.30;79.20
20171;DHT22;10245;51.344;6.620;2022-09-09T12:05:59;21.40;79.20
20171;DHT22;10245;51.344;6.620;2022-09-09T12:08:27;21.70;80.50
20171;DHT22;10245;51.344;6.620;2022-09-09T12:10:56;22.00;78.60
20171;DHT22;10245;51.344;6.620;2022-09-09T12:13:23;21.80;79.40
20171;DHT22;10245;51.344;6.620;2022-09-09T12:15:49;21.60;79.20
20171;DHT22;10245;51.344;6.620;2022-09-09T12:18:22;21.50;78.80
20171;DHT22;10245;51.344;6.620;2022-09-09T12:20:54;21.10;82.30
20171;DHT22;10245;51.344;6.620;2022-09-09T12:23:29;20.60;86.70
20171;DHT22;10245;51.344;6.620;2022-09-09T12:26:14;20.40;89.20
20171;DHT22;10245;51.344;6.620;2022-09-09T12:28:52;20.60;89.00
20171;DHT22;10245;51.344;6.620;2022-09-09T12:31:25;20.60;90.30
20171;DHT22;10245;51.344;6.620;2022-09-09T12:33:53;20.90;90.80
20171;DHT22;10245;51.344;6.620;2022-09-09T12:36:19;20.80;91.00
20171;DHT22;10245;51.344;6.620;2022-09-09T12:38:45;20.90;89.70
20171;DHT22;10245;51.344;6.620;2022-09-09T12:41:20;20.80;92.50
20171;DHT22;10245;51.344;6.620;2022-09-09T12:43:46;20.90;90.00
20171;DHT22;10245;51.344;6.620;2022-09-09T12:46:15;20.30;91.20
20171;DHT22;10245;51.344;6.620;2022-09-09T12:48:44;20.20;94.30
20171;DHT22;10245;51.344;6.620;2022-09-09T12:51:18;20.20;95.40
20171;DHT22;10245;51.344;6.620;2022-09-09T12:53:43;20.10;97.10
20171;DHT22;10245;51.344;6.620;2022-09-09T12:56:20;20.10;97.90
20171;DHT22;10245;51.344;6.620;2022-09-09T12:58:47;20.00;98.40
20171;DHT22;10245;51.344;6.620;2022-09-09T13:01:20;20.10;97.80
20171;DHT22;10245;51.344;6.620;2022-09-09T13:03:46;20.10;98.60
20171;DHT22;10245;51.344;6.620;2022-09-09T13:06:18;20.20;98.90
20171;DHT22;10245;51.344;6.620;2022-09-09T13:08:50;20.10;99.90
20171;DHT22;10245;51.344;6.620;2022-09-09T13:11:17;20.40;99.90
20171;DHT22;10245;51.344;6.620;2022-09-09T13:13:50;20.60;99.90
20171;DHT22;10245;51.344;6.620;2022-09-09T13:16:20;20.60;98.40
20171;DHT22;10245;51.344;6.620;2022-09-09T13:18:45;20.70;98.00
20171;DHT22;10245;51.344;6.620;2022-09-09T13:21:09;20.90;97.00
20171;DHT22;10245;51.344;6.620;2022-09-09T13:23:34;20.80;98.10
20171;DHT22;10245;51.344;6.620;2022-09-09T13:26:01;20.90;94.80
20171;DHT22;10245;51.344;6.620;2022-09-09T13:28:28;21.10;95.30
20171;DHT22;10245;51.344;6.620;2022-09-09T13:30:59;21.00;96.00
20171;DHT22;10245;51.344;6.620;2022-09-09T13:33:30;21.00;93.80
20171;DHT22;10245;51.344;6.620;2022-09-09T13:35:56;21.20;93.70
20171;DHT22;10245;51.344;6.620;2022-09-09T13:38:21;21.50;92.50
20171;DHT22;10245;51.344;6.620;2022-09-09T13:40:53;21.30;91.00
20171;DHT22;10245;51.344;6.620;2022-09-09T13:43:22;21.30;90.30
20171;DHT22;10245;51.344;6.620;2022-09-09T13:45:58;21.40;90.30
20171;DHT22;10245;51.344;6.620;2022-09-09T13:48:23;21.60;91.50
20171;DHT22;10245;51.344;6.620;2022-09-09T13:50:54;21.30;89.20
20171;DHT22;10245;51.344;6.620;2022-09-09T13:53:18;21.20;90.00
20171;DHT22;10245;51.344;6.620;2022-09-09T13:55:42;21.10;89.60
20171;DHT22;10245;51.344;6.620;2022-09-09T13:58:15;21.20;90.20
20171;DHT22;10245;51.344;6.620;2022-09-09T14:00:39;21.30;90.80
20171;DHT22;10245;51.344;6.620;2022-09-09T14:03:05;21.40;89.80
20171;DHT22;10245;51.344;6.620;2022-09-09T14:05:31;21.50;90.00
20171;DHT22;10245;51.344;6.620;2022-09-09T14:07:55;21.60;88.00
20171;DHT22;10245;51.344;6.620;2022-09-09T14:10:20;21.90;88.70
20171;DHT22;10245;51.344;6.620;2022-09-09T14:12:44;21.80;89.10
20171;DHT22;10245;51.344;6.620;2022-09-09T14:15:10;21.40;88.40
20171;DHT22;10245;51.344;6.620;2022-09-09T14:17:34;21.30;88.60
20171;DHT22;10245;51.344;6.620;2022-09-09T14:19:59;21.10;89.20
20171;DHT22;10245;51.344;6.620;2022-09-09T14:22:23;21.00;88.10
20171;DHT22;10245;51.344;6.620;2022-09-09T14:24:47;20.70;91.20
20171;DHT22;10245;51.344;6.620;2022-09-09T14:27:10;19.70;94.50
20171;DHT22;10245;51.344;6.620;2022-09-09T14:29:38;19.30;96.90
20171;DHT22;10245;51.344;6.620;2022-09-09T14:32:02;19.40;97.60
20171;DHT22;10245;51.344;6.620;2022-09-09T14:34:31;19.10;97.60
20171;DHT22;10245;51.344;6.620;2022-09-09T14:36:56;19.20;97.20
20171;DHT22;10245;51.344;6.620;2022-09-09T14:39:20;19.20;97.90
20171;DHT22;10245;51.344;6.620;2022-09-09T14:41:44;19.20;97.40
20171;DHT22;10245;51.344;6.620;2022-09-09T14:44:09;19.30;97.90
20171;DHT22;10245;51.344;6.620;2022-09-09T14:46:41;19.30;97.90
20171;DHT22;10245;51.344;6.620;2022-09-09T14:49:04;19.20;97.30
20171;DHT22;10245;51.344;6.620;2022-09-09T14:51:29;19.10;97.70
20171;DHT22;10245;51.344;6.620;2022-09-09T14:53:55;19.00;99.90
20171;DHT22;10245;51.344;6.620;2022-09-09T14:56:22;19.10;99.90
20171;DHT22;10245;51.344;6.620;2022-09-09T14:58:46;19.20;99.60
20171;DHT22;10245;51.344;6.620;2022-09-09T15:01:12;19.00;99.90
20171;DHT22;10245;51.344;6.620;2022-09-09T15:03:36;19.20;99.90
20171;DHT22;10245;51.344;6.620;2022-09-09T15:06:05;19.20;99.90
20171;DHT22;10245;51.344;6.620;2022-09-09T15:08:30;19.30;99.80
20171;DHT22;10245;51.344;6.620;2022-09-09T15:11:00;19.30;99.90
20171;DHT22;10245;51.344;6.620;2022-09-09T15:13:24;19.30;99.90
20171;DHT22;10245;51.344;6.620;2022-09-09T15:15:49;19.40;99.90
20171;DHT22;10245;51.344;6.620;2022-09-09T15:18:14;19.40;99.90
20171;DHT22;10245;51.344;6.620;2022-09-09T15:20:44;19.40;99.90
20171;DHT22;10245;51.344;6.620;2022-09-09T15:23:09;19.50;99.90
20171;DHT22;10245;51.344;6.620;2022-09-09T15:25:32;19.70;99.90
20171;DHT22;10245;51.344;6.620;2022-09-09T15:28:16;19.70;99.70
20171;DHT22;10245;51.344;6.620;2022-09-09T15:30:40;19.80;98.90
20171;DHT22;10245;51.344;6.620;2022-09-09T15:33:08;19.80;98.90
20171;DHT22;10245;51.344;6.620;2022-09-09T15:35:34;19.70;99.90
20171;DHT22;10245;51.344;6.620;2022-09-09T15:43:44;20.00;99.90
20171;DHT22;10245;51.344;6.620;2022-09-09T15:46:42;19.90;99.90
20171;DHT22;10245;51.344;6.620;2022-09-09T15:49:12;20.10;99.90